sensor_id;sensor_type;location;lat;lon;timestamp;pressure;altitude;pressure_sealevel;temperature;humidity
24154;BME280;12312;53.362;-1.518;2023-04-27T00:02:19;99374.31;;;7.97;97.16
24154;BME280;12312;53.362;-1.518;2023-04-27T00:05:03;99381.22;;;8.00;97.25
24154;BME280;12312;53.362;-1.518;2023-04-27T00:07:47;99386.84;;;7.80;96.73
24154;BME280;12312;53.362;-1.518;2023-04-27T00:10:32;99384.69;;;7.86;97.34
24154;BME280;12312;53.362;-1.518;2023-04-27T00:13:16;99380.78;;;7.78;98.81
24154;BME280;12312;53.362;-1.518;2023-04-27T00:16:00;99391.31;;;7.93;97.35
24154;BME280;12312;53.362;-1.518;2023-04-27T00:18:46;99385.47;;;8.02;97.06
24154;BME280;12312;53.362;-1.518;2023-04-27T00:21:30;99383.13;;;8.12;96.43
24154;BME280;12312;53.362;-1.518;2023-04-27T00:24:14;99376.22;;;8.09;95.63
24154;BME280;12312;53.362;-1.518;2023-04-27T00:26:58;99375.16;;;8.41;95.98
24154;BME280;12312;53.362;-1.518;2023-04-27T00:29:42;99370.25;;;8.06;95.30
24154;BME280;12312;53.362;-1.518;2023-04-27T00:32:26;99367.69;;;8.34;96.30
24154;BME280;12312;53.362;-1.518;2023-04-27T00:35:11;99368.56;;;8.19;95.44
24154;BME280;12312;53.362;-1.518;2023-04-27T00:37:55;99362.28;;;8.35;99.63
24154;BME280;12312;53.362;-1.518;2023-04-27T00:40:39;99351.13;;;8.44;100.00
24154;BME280;12312;53.362;-1.518;2023-04-27T00:43:23;99358.66;;;8.64;100.00
24154;BME280;12312;53.362;-1.518;2023-04-27T00:46:08;99360.69;;;8.03;100.00
24154;BME280;12312;53.362;-1.518;2023-04-27T00:48:53;99358.78;;;7.91;100.00
24154;BME280;12312;53.362;-1.518;2023-04-27T00:51:37;99352.94;;;8.00;100.00
24154;BME280;12312;53.362;-1.518;2023-04-27T00:54:21;99356.50;;;8.29;100.00
24154;BME280;12312;53.362;-1.518;2023-04-27T00:57:05;99358.41;;;8.11;100.00
24154;BME280;12312;53.362;-1.518;2023-04-27T00:59:49;99348.38;;;8.02;100.00
24154;BME280;12312;53.362;-1.518;2023-04-27T01:02:33;99338.25;;;8.09;100.00
24154;BME280;12312;53.362;-1.518;2023-04-27T01:05:19;99341.97;;;8.06;100.00
24154;BME280;12312;53.362;-1.518;2023-04-27T01:08:03;99334.63;;;8.25;100.00
24154;BME280;12312;53.362;-1.518;2023-04-27T01:10:48;99340.25;;;8.19;100.00
24154;BME280;12312;53.362;-1.518;2023-04-27T01:13:32;99340.09;;;8.22;100.00
24154;BME280;12312;53.362;-1.518;2023-04-27T01:16:17;99340.31;;;8.33;100.00
24154;BME280;12312;53.362;-1.518;2023-04-27T01:19:01;99335.56;;;8.24;100.00
24154;BME280;12312;53.362;-1.518;2023-04-27T01:21:46;99330.88;;;8.00;100.00
24154;BME280;12312;53.362;-1.518;2023-04-27T01:24:30;99332.50;;;8.16;100.00
24154;BME280;12312;53.362;-1.518;2023-04-27T01:27:14;99326.41;;;8.14;100.00
24154;BME280;12312;53.362;-1.518;2023-04-27T01:29:58;99328.75;;;7.47;100.00
24154;BME280;12312;53.362;-1.518;2023-04-27T01:32:42;99321.97;;;7.57;100.00
24154;BME280;12312;53.362;-1.518;2023-04-27T01:35:26;99326.72;;;7.66;100.00
24154;BME280;12312;53.362;-1.518;2023-04-27T01:38:11;99330.78;;;7.58;100.00
24154;BME280;12312;53.362;-1.518;2023-04-27T01:40:57;99326.72;;;7.96;100.00
24154;BME280;12312;53.362;-1.518;2023-04-27T01:43:46;99332.84;;;7.96;100.00
24154;BME280;12312;53.362;-1.518;2023-04-27T01:46:30;99338.53;;;8.04;100.00
24154;BME280;12312;53.362;-1.518;2023-04-27T01:49:15;99346.31;;;8.21;100.00
24154;BME280;12312;53.362;-1.518;2023-04-27T01:51:59;99336.38;;;8.11;100.00
24154;BME280;12312;53.362;-1.518;2023-04-27T01:54:44;99355.41;;;8.03;100.00
24154;BME280;12312;53.362;-1.518;2023-04-27T01:57:27;99350.09;;;8.03;100.00
24154;BME280;12312;53.362;-1.518;2023-04-27T02:00:12;99340.81;;;8.10;100.00
24154;BME280;12312;53.362;-1.518;2023-04-27T02:02:56;99350.84;;;8.05;100.00
24154;BME280;12312;53.362;-1.518;2023-04-27T02:05:42;99346.09;;;7.96;100.00
24154;BME280;12312;53.362;-1.518;2023-04-27T02:08:25;99348.91;;;7.93;100.00
24154;BME280;12312;53.362;-1.518;2023-04-27T02:11:09;99355.81;;;7.82;100.00
24154;BME280;12312;53.362;-1.518;2023-04-27T02:13:53;99360.06;;;7.70;100.00
24154;BME280;12312;53.362;-1.518;2023-04-27T02:16:37;99348.13;;;7.77;100.00
24154;BME280;12312;53.362;-1.518;2023-04-27T02:19:21;99350.16;;;7.88;100.00
24154;BME280;12312;53.362;-1.518;2023-04-27T02:22:06;99340.41;;;7.88;100.00
24154;BME280;12312;53.362;-1.518;2023-04-27T02:24:49;99339.38;;;7.91;100.00
24154;BME280;12312;53.362;-1.518;2023-04-27T02:27:36;99344.44;;;8.09;100.00
24154;BME280;12312;53.362;-1.518;2023-04-27T02:30:20;99335.13;;;8.02;100.00
24154;BME280;12312;53.362;-1.518;2023-04-27T02:33:05;99340.03;;;8.08;100.00
24154;BME280;12312;53.362;-1.518;2023-04-27T02:35:50;99329.63;;;7.91;100.00
24154;BME280;12312;53.362;-1.518;2023-04-27T02:38:34;99332.84;;;7.96;100.00
24154;BME280;12312;53.362;-1.518;2023-04-27T02:41:18;99333.63;;;7.69;100.00
24154;BME280;12312;53.362;-1.518;2023-04-27T02:44:03;99328.13;;;8.01;100.00
24154;BME280;12312;53.362;-1.518;2023-04-27T02:46:48;99323.78;;;8.00;100.00
24154;BME280;12312;53.362;-1.518;2023-04-27T02:49:33;99323.69;;;8.02;100.00
24154;BME280;12312;53.362;-1.518;2023-04-27T02:52:18;99322.97;;;7.84;100.00
24154;BME280;12312;53.362;-1.518;2023-04-27T02:55:02;99317.31;;;7.90;100.00
24154;BME280;12312;53.362;-1.518;2023-04-27T02:57:46;99319.59;;;7.82;100.00
24154;BME280;12312;53.362;-1.518;2023-04-27T03:00:30;99317.50;;;7.87;100.00
24154;BME280;12312;53.362;-1.518;2023-04-27T03:03:14;99311.59;;;7.68;100.00
24154;BME280;12312;53.362;-1.518;2023-04-27T03:05:58;99323.94;;;7.54;100.00
24154;BME280;12312;53.362;-1.518;2023-04-27T03:08:41;99317.25;;;7.62;100.00
24154;BME280;12312;53.362;-1.518;2023-04-27T03:11:25;99319.19;;;7.74;100.00
24154;BME280;12312;53.362;-1.518;2023-04-27T03:14:09;99313.47;;;7.66;100.00
24154;BME280;12312;53.362;-1.518;2023-04-27T03:16:55;99308.97;;;7.68;100.00
24154;BME280;12312;53.362;-1.518;2023-04-27T03:19:40;99304.16;;;7.45;100.00
24154;BME280;12312;53.362;-1.518;2023-04-27T03:22:24;99311.47;;;7.56;100.00
24154;BME280;12312;53.362;-1.518;2023-04-27T03:25:08;99295.84;;;7.51;100.00
24154;BME280;12312;53.362;-1.518;2023-04-27T03:27:52;99299.28;;;7.53;100.00
24154;BME280;12312;53.362;-1.518;2023-04-27T03:30:38;99300.38;;;7.49;100.00
24154;BME280;12312;53.362;-1.518;2023-04-27T03:33:23;99295.63;;;7.40;100.00
24154;BME280;12312;53.362;-1.518;2023-04-27T03:36:09;99293.88;;;7.25;100.00
24154;BME280;12312;53.362;-1.518;2023-04-27T03:38:54;99290.13;;;7.13;100.00
24154;BME280;12312;53.362;-1.518;2023-04-27T03:41:38;99294.28;;;7.33;100.00
24154;BME280;12312;53.362;-1.518;2023-04-27T03:44:22;99285.28;;;7.21;100.00
24154;BME280;12312;53.362;-1.518;2023-04-27T03:47:06;99295.50;;;7.28;100.00
24154;BME280;12312;53.362;-1.518;2023-04-27T03:49:52;99301.59;;;7.44;100.00
24154;BME280;12312;53.362;-1.518;2023-04-27T03:52:36;99300.00;;;7.41;100.00
24154;BME280;12312;53.362;-1.518;2023-04-27T03:55:20;99291.22;;;7.25;100.00
24154;BME280;12312;53.362;-1.518;2023-04-27T03:58:04;99282.19;;;7.13;100.00
24154;BME280;12312;53.362;-1.518;2023-04-27T04:00:49;99282.63;;;7.21;100.00
24154;BME280;12312;53.362;-1.518;2023-04-27T04:03:33;99278.56;;;7.30;100.00
24154;BME280;12312;53.362;-1.518;2023-04-27T04:06:17;99277.84;;;7.42;100.00
24154;BME280;12312;53.362;-1.518;2023-04-27T04:09:01;99278.00;;;7.55;100.00
24154;BME280;12312;53.362;-1.518;2023-04-27T04:11:48;99276.63;;;7.48;100.00
24154;BME280;12312;53.362;-1.518;2023-04-27T04:14:32;99275.34;;;7.25;100.00
24154;BME280;12312;53.362;-1.518;2023-04-27T04:17:16;99272.41;;;7.29;100.00
24154;BME280;12312;53.362;-1.518;2023-04-27T04:20:00;99272.88;;;7.22;100.00
24154;BME280;12312;53.362;-1.518;2023-04-27T04:22:46;99274.88;;;7.32;100.00
24154;BME280;12312;53.362;-1.518;2023-04-27T04:25:30;99270.22;;;7.22;100.00
24154;BME280;12312;53.362;-1.518;2023-04-27T04:28:15;99265.06;;;7.35;100.00
24154;BME280;12312;53.362;-1.518;2023-04-27T04:31:02;99274.69;;;7.21;100.00
24154;BME280;12312;53.362;-1.518;2023-04-27T04:33:47;99275.16;;;7.28;100.00
24154;BME280;12312;53.362;-1.518;2023-04-27T04:36:31;99269.69;;;7.31;100.00
24154;BME280;12312;53.362;-1.518;2023-04-27T04:39:15;99264.22;;;7.34;100.00
24154;BME280;12312;53.362;-1.518;2023-04-27T04:41:59;99260.13;;;7.28;100.00
24154;BME280;12312;53.362;-1.518;2023-04-27T04:44:43;99262.03;;;7.11;100.00
24154;BME280;12312;53.362;-1.518;2023-04-27T04:47:28;99251.88;;;6.74;100.00
24154;BME280;12312;53.362;-1.518;2023-04-27T04:50:14;99269.16;;;7.40;100.00
24154;BME280;12312;53.362;-1.518;2023-04-27T04:52:58;99259.94;;;7.02;100.00
24154;BME280;12312;53.362;-1.518;2023-04-27T04:55:42;99274.06;;;7.46;100.00
24154;BME280;12312;53.362;-1.518;2023-04-27T04:58:26;99275.03;;;7.45;100.00
24154;BME280;12312;53.362;-1.518;2023-04-27T05:01:10;99277.44;;;7.64;100.00
24154;BME280;12312;53.362;-1.518;2023-04-27T05:03:54;99275.50;;;7.22;100.00
24154;BME280;12312;53.362;-1.518;2023-04-27T05:06:38;99274.25;;;7.43;100.00
24154;BME280;12312;53.362;-1.518;2023-04-27T05:09:22;99275.81;;;7.47;100.00
24154;BME280;12312;53.362;-1.518;2023-04-27T05:12:06;99272.00;;;6.92;100.00
24154;BME280;12312;53.362;-1.518;2023-04-27T05:14:50;99274.75;;;7.50;100.00
24154;BME280;12312;53.362;-1.518;2023-04-27T05:17:35;99276.94;;;7.57;100.00
24154;BME280;12312;53.362;-1.518;2023-04-27T05:20:19;99284.66;;;7.46;100.00
24154;BME280;12312;53.362;-1.518;2023-04-27T05:23:04;99279.72;;;7.40;100.00
24154;BME280;12312;53.362;-1.518;2023-04-27T05:25:47;99281.41;;;7.27;100.00
24154;BME280;12312;53.362;-1.518;2023-04-27T05:28:31;99281.09;;;7.47;100.00
24154;BME280;12312;53.362;-1.518;2023-04-27T05:31:17;99285.84;;;7.56;100.00
24154;BME280;12312;53.362;-1.518;2023-04-27T05:34:01;99291.88;;;7.44;100.00
24154;BME280;12312;53.362;-1.518;2023-04-27T05:36:45;99295.34;;;7.45;100.00
24154;BME280;12312;53.362;-1.518;2023-04-27T05:39:30;99293.91;;;7.39;100.00
24154;BME280;12312;53.362;-1.518;2023-04-27T05:42:14;99284.66;;;7.46;100.00
24154;BME280;12312;53.362;-1.518;2023-04-27T05:44:58;99293.13;;;7.23;100.00
24154;BME280;12312;53.362;-1.518;2023-04-27T05:47:41;99294.81;;;7.24;100.00
24154;BME280;12312;53.362;-1.518;2023-04-27T05:50:25;99296.97;;;7.02;100.00
24154;BME280;12312;53.362;-1.518;2023-04-27T05:53:09;99287.47;;;7.29;100.00
24154;BME280;12312;53.362;-1.518;2023-04-27T05:55:55;99289.69;;;7.21;100.00
24154;BME280;12312;53.362;-1.518;2023-04-27T05:58:39;99276.41;;;7.07;100.00
24154;BME280;12312;53.362;-1.518;2023-04-27T06:01:24;99281.88;;;6.88;100.00
24154;BME280;12312;53.362;-1.518;2023-04-27T06:04:07;99267.06;;;6.86;100.00
24154;BME280;12312;53.362;-1.518;2023-04-27T06:06:51;99276.28;;;6.79;100.00
24154;BME280;12312;53.362;-1.518;2023-04-27T06:09:36;99277.06;;;7.26;100.00
24154;BME280;12312;53.362;-1.518;2023-04-27T06:12:20;99280.00;;;7.06;100.00
24154;BME280;12312;53.362;-1.518;2023-04-27T06:15:05;99259.47;;;7.25;100.00
24154;BME280;12312;53.362;-1.518;2023-04-27T06:17:52;99261.97;;;7.42;100.00
24154;BME280;12312;53.362;-1.518;2023-04-27T06:20:38;99259.03;;;7.76;100.00
24154;BME280;12312;53.362;-1.518;2023-04-27T06:23:22;99261.69;;;7.76;100.00
24154;BME280;12312;53.362;-1.518;2023-04-27T06:26:06;99266.81;;;7.50;100.00
24154;BME280;12312;53.362;-1.518;2023-04-27T06:28:50;99264.06;;;7.81;100.00
24154;BME280;12312;53.362;-1.518;2023-04-27T06:31:34;99254.09;;;7.84;100.00
24154;BME280;12312;53.362;-1.518;2023-04-27T06:34:19;99262.06;;;7.98;100.00
24154;BME280;12312;53.362;-1.518;2023-04-27T06:37:04;99270.50;;;7.61;100.00
24154;BME280;12312;53.362;-1.518;2023-04-27T06:39:48;99264.38;;;7.31;100.00
24154;BME280;12312;53.362;-1.518;2023-04-27T06:42:32;99271.16;;;7.51;100.00
24154;BME280;12312;53.362;-1.518;2023-04-27T06:45:16;99261.06;;;7.57;100.00
24154;BME280;12312;53.362;-1.518;2023-04-27T06:48:00;99259.94;;;7.61;100.00
24154;BME280;12312;53.362;-1.518;2023-04-27T06:50:46;99267.84;;;7.47;100.00
24154;BME280;12312;53.362;-1.518;2023-04-27T06:53:30;99258.06;;;7.77;100.00
24154;BME280;12312;53.362;-1.518;2023-04-27T06:56:15;99263.94;;;7.96;100.00
24154;BME280;12312;53.362;-1.518;2023-04-27T06:58:58;99266.97;;;7.76;100.00
24154;BME280;12312;53.362;-1.518;2023-04-27T07:01:43;99265.81;;;7.66;100.00
24154;BME280;12312;53.362;-1.518;2023-04-27T07:04:26;99264.03;;;7.67;100.00
24154;BME280;12312;53.362;-1.518;2023-04-27T07:07:11;99263.34;;;7.63;100.00
24154;BME280;12312;53.362;-1.518;2023-04-27T07:09:55;99255.25;;;7.80;100.00
24154;BME280;12312;53.362;-1.518;2023-04-27T07:12:41;99251.47;;;7.98;100.00
24154;BME280;12312;53.362;-1.518;2023-04-27T07:15:25;99249.16;;;7.78;100.00
24154;BME280;12312;53.362;-1.518;2023-04-27T07:18:10;99255.13;;;7.68;100.00
24154;BME280;12312;53.362;-1.518;2023-04-27T07:20:55;99245.97;;;8.15;100.00
24154;BME280;12312;53.362;-1.518;2023-04-27T07:23:40;99247.03;;;8.27;100.00
24154;BME280;12312;53.362;-1.518;2023-04-27T07:26:25;99251.47;;;8.40;100.00
24154;BME280;12312;53.362;-1.518;2023-04-27T07:29:09;99250.16;;;7.48;100.00
24154;BME280;12312;53.362;-1.518;2023-04-27T07:31:55;99248.81;;;8.12;100.00
24154;BME280;12312;53.362;-1.518;2023-04-27T07:34:39;99244.09;;;8.03;100.00
24154;BME280;12312;53.362;-1.518;2023-04-27T07:37:24;99249.69;;;8.27;100.00
24154;BME280;12312;53.362;-1.518;2023-04-27T07:40:09;99240.91;;;8.26;100.00
24154;BME280;12312;53.362;-1.518;2023-04-27T07:42:59;99254.47;;;8.20;100.00
24154;BME280;12312;53.362;-1.518;2023-04-27T07:45:43;99256.00;;;8.10;100.00
24154;BME280;12312;53.362;-1.518;2023-04-27T07:48:29;99254.13;;;8.40;100.00
24154;BME280;12312;53.362;-1.518;2023-04-27T07:51:14;99257.31;;;8.59;100.00
24154;BME280;12312;53.362;-1.518;2023-04-27T07:53:59;99262.25;;;8.51;100.00
24154;BME280;12312;53.362;-1.518;2023-04-27T07:56:45;99264.75;;;8.81;100.00
24154;BME280;12312;53.362;-1.518;2023-04-27T07:59:29;99261.66;;;9.01;100.00
24154;BME280;12312;53.362;-1.518;2023-04-27T08:02:14;99264.81;;;8.93;100.00
24154;BME280;12312;53.362;-1.518;2023-04-27T08:04:58;99266.56;;;8.80;100.00
24154;BME280;12312;53.362;-1.518;2023-04-27T08:07:42;99264.31;;;8.74;100.00
24154;BME280;12312;53.362;-1.518;2023-04-27T08:10:26;99252.50;;;8.92;100.00
24154;BME280;12312;53.362;-1.518;2023-04-27T08:13:10;99252.16;;;8.70;100.00
24154;BME280;12312;53.362;-1.518;2023-04-27T08:15:54;99249.84;;;8.92;100.00
24154;BME280;12312;53.362;-1.518;2023-04-27T08:18:42;99246.69;;;9.27;100.00
24154;BME280;12312;53.362;-1.518;2023-04-27T08:21:27;99238.97;;;9.22;100.00
24154;BME280;12312;53.362;-1.518;2023-04-27T08:24:11;99242.03;;;9.43;100.00
24154;BME280;12312;53.362;-1.518;2023-04-27T08:26:55;99237.78;;;9.40;100.00
24154;BME280;12312;53.362;-1.518;2023-04-27T08:29:44;99224.84;;;9.61;100.00
24154;BME280;12312;53.362;-1.518;2023-04-27T08:32:30;99226.09;;;9.43;100.00
24154;BME280;12312;53.362;-1.518;2023-04-27T08:35:13;99224.81;;;9.36;100.00
24154;BME280;12312;53.362;-1.518;2023-04-27T08:37:57;99214.59;;;9.30;100.00
24154;BME280;12312;53.362;-1.518;2023-04-27T08:40:43;99217.41;;;9.78;100.00
24154;BME280;12312;53.362;-1.518;2023-04-27T08:43:32;99213.91;;;9.90;100.00
24154;BME280;12312;53.362;-1.518;2023-04-27T08:46:21;99215.91;;;9.62;99.68
24154;BME280;12312;53.362;-1.518;2023-04-27T08:49:06;99205.50;;;10.09;100.00
24154;BME280;12312;53.362;-1.518;2023-04-27T08:51:51;99206.97;;;9.88;100.00
24154;BME280;12312;53.362;-1.518;2023-04-27T08:54:35;99193.78;;;9.86;97.89
24154;BME280;12312;53.362;-1.518;2023-04-27T08:57:19;99193.34;;;10.05;97.43
24154;BME280;12312;53.362;-1.518;2023-04-27T09:00:03;99201.66;;;9.88;95.99
24154;BME280;12312;53.362;-1.518;2023-04-27T09:02:56;99190.41;;;9.72;95.96
24154;BME280;12312;53.362;-1.518;2023-04-27T09:05:45;99188.91;;;9.68;97.15
24154;BME280;12312;53.362;-1.518;2023-04-27T09:08:53;99188.19;;;9.66;97.30
24154;BME280;12312;53.362;-1.518;2023-04-27T09:11:38;99182.97;;;9.77;97.09
24154;BME280;12312;53.362;-1.518;2023-04-27T09:14:22;99171.28;;;9.92;97.15
24154;BME280;12312;53.362;-1.518;2023-04-27T09:17:07;99173.72;;;9.95;97.36
24154;BME280;12312;53.362;-1.518;2023-04-27T09:20:06;99176.59;;;9.92;99.81
24154;BME280;12312;53.362;-1.518;2023-04-27T09:22:52;99176.53;;;10.04;100.00
24154;BME280;12312;53.362;-1.518;2023-04-27T09:25:38;99176.38;;;9.95;100.00
24154;BME280;12312;53.362;-1.518;2023-04-27T09:28:24;99176.06;;;10.48;100.00
24154;BME280;12312;53.362;-1.518;2023-04-27T09:31:10;99181.72;;;10.67;100.00
24154;BME280;12312;53.362;-1.518;2023-04-27T09:33:54;99183.31;;;10.46;99.57
24154;BME280;12312;53.362;-1.518;2023-04-27T09:36:39;99178.91;;;10.81;98.29
24154;BME280;12312;53.362;-1.518;2023-04-27T09:39:23;99181.97;;;10.64;100.00
24154;BME280;12312;53.362;-1.518;2023-04-27T09:42:08;99180.03;;;10.66;99.18
24154;BME280;12312;53.362;-1.518;2023-04-27T09:44:54;99172.63;;;11.06;98.52
24154;BME280;12312;53.362;-1.518;2023-04-27T09:47:39;99169.56;;;10.99;97.17
24154;BME280;12312;53.362;-1.518;2023-04-27T09:50:23;99165.53;;;11.28;93.20
24154;BME280;12312;53.362;-1.518;2023-04-27T09:53:13;99159.25;;;11.29;90.00
24154;BME280;12312;53.362;-1.518;2023-04-27T10:02:15;99161.16;;;11.16;87.93
24154;BME280;12312;53.362;-1.518;2023-04-27T10:07:55;99146.66;;;11.31;87.57
24154;BME280;12312;53.362;-1.518;2023-04-27T10:10:46;99143.84;;;11.67;87.14
24154;BME280;12312;53.362;-1.518;2023-04-27T10:13:31;99142.22;;;11.54;86.88
24154;BME280;12312;53.362;-1.518;2023-04-27T10:16:15;99156.06;;;11.70;85.69
24154;BME280;12312;53.362;-1.518;2023-04-27T10:19:08;99140.19;;;11.68;86.44
24154;BME280;12312;53.362;-1.518;2023-04-27T10:21:59;99142.81;;;11.46;85.75
24154;BME280;12312;53.362;-1.518;2023-04-27T10:24:48;99150.34;;;11.52;86.93
24154;BME280;12312;53.362;-1.518;2023-04-27T10:27:37;99144.28;;;11.61;87.46
24154;BME280;12312;53.362;-1.518;2023-04-27T10:30:24;99152.19;;;11.63;88.18
24154;BME280;12312;53.362;-1.518;2023-04-27T10:33:10;99148.06;;;11.59;84.50
24154;BME280;12312;53.362;-1.518;2023-04-27T10:35:56;99144.84;;;11.43;82.44
24154;BME280;12312;53.362;-1.518;2023-04-27T10:38:41;99147.25;;;11.69;82.56
24154;BME280;12312;53.362;-1.518;2023-04-27T10:41:33;99142.16;;;11.88;81.69
24154;BME280;12312;53.362;-1.518;2023-04-27T10:44:28;99141.41;;;11.64;81.72
24154;BME280;12312;53.362;-1.518;2023-04-27T10:47:15;99127.38;;;11.73;82.44
24154;BME280;12312;53.362;-1.518;2023-04-27T10:50:00;99133.63;;;11.61;83.21
24154;BME280;12312;53.362;-1.518;2023-04-27T10:52:45;99120.09;;;11.64;83.97
24154;BME280;12312;53.362;-1.518;2023-04-27T10:55:30;99122.50;;;11.67;84.09
24154;BME280;12312;53.362;-1.518;2023-04-27T10:58:21;99112.31;;;11.61;84.36
24154;BME280;12312;53.362;-1.518;2023-04-27T11:01:06;99106.34;;;11.36;86.06
24154;BME280;12312;53.362;-1.518;2023-04-27T11:03:58;99105.25;;;11.49;86.09
24154;BME280;12312;53.362;-1.518;2023-04-27T11:06:43;99102.13;;;11.55;87.05
24154;BME280;12312;53.362;-1.518;2023-04-27T11:09:31;99105.88;;;11.42;84.82
24154;BME280;12312;53.362;-1.518;2023-04-27T11:12:15;99102.09;;;11.33;85.31
24154;BME280;12312;53.362;-1.518;2023-04-27T11:14:59;99092.00;;;11.26;85.38
24154;BME280;12312;53.362;-1.518;2023-04-27T11:17:43;99095.06;;;11.32;86.30
24154;BME280;12312;53.362;-1.518;2023-04-27T11:20:29;99081.28;;;11.49;85.96
24154;BME280;12312;53.362;-1.518;2023-04-27T11:23:27;99085.28;;;11.55;84.26
24154;BME280;12312;53.362;-1.518;2023-04-27T11:26:20;99089.63;;;11.45;82.34
24154;BME280;12312;53.362;-1.518;2023-04-27T11:29:07;99078.59;;;11.38;82.26
24154;BME280;12312;53.362;-1.518;2023-04-27T11:31:56;99073.28;;;11.49;82.23
24154;BME280;12312;53.362;-1.518;2023-04-27T11:34:51;99068.97;;;11.70;84.72
24154;BME280;12312;53.362;-1.518;2023-04-27T11:37:35;99066.38;;;11.36;84.11
24154;BME280;12312;53.362;-1.518;2023-04-27T11:40:19;99067.69;;;11.19;84.13
24154;BME280;12312;53.362;-1.518;2023-04-27T11:43:03;99069.38;;;11.20;83.16
24154;BME280;12312;53.362;-1.518;2023-04-27T11:45:47;99068.59;;;10.96;81.44
24154;BME280;12312;53.362;-1.518;2023-04-27T11:48:31;99068.41;;;11.10;82.00
24154;BME280;12312;53.362;-1.518;2023-04-27T11:51:15;99067.22;;;11.25;82.34
24154;BME280;12312;53.362;-1.518;2023-04-27T11:54:03;99059.97;;;11.49;82.98
24154;BME280;12312;53.362;-1.518;2023-04-27T11:56:48;99062.03;;;11.35;83.59
24154;BME280;12312;53.362;-1.518;2023-04-27T11:59:31;99054.59;;;11.16;82.63
24154;BME280;12312;53.362;-1.518;2023-04-27T12:02:16;99050.94;;;11.06;83.69
24154;BME280;12312;53.362;-1.518;2023-04-27T12:05:00;99048.44;;;11.27;83.89
24154;BME280;12312;53.362;-1.518;2023-04-27T12:07:44;99041.53;;;11.35;82.73
24154;BME280;12312;53.362;-1.518;2023-04-27T12:10:28;99035.25;;;11.25;83.66
24154;BME280;12312;53.362;-1.518;2023-04-27T12:13:13;99030.53;;;11.51;83.26
24154;BME280;12312;53.362;-1.518;2023-04-27T12:15:57;99031.09;;;11.21;nan
24154;BME280;12312;53.362;-1.518;2023-04-27T12:18:41;99019.75;;;11.30;79.81
24154;BME280;12312;53.362;-1.518;2023-04-27T12:21:25;99023.47;;;11.17;78.81
24154;BME280;12312;53.362;-1.518;2023-04-27T12:24:09;99029.41;;;11.20;78.37
24154;BME280;12312;53.362;-1.518;2023-04-27T12:26:53;99027.97;;;11.27;78.63
24154;BME280;12312;53.362;-1.518;2023-04-27T12:29:37;99037.91;;;11.47;79.46
24154;BME280;12312;53.362;-1.518;2023-04-27T12:32:22;99026.31;;;11.48;78.49
24154;BME280;12312;53.362;-1.518;2023-04-27T12:35:07;99020.94;;;11.26;78.91
24154;BME280;12312;53.362;-1.518;2023-04-27T12:37:52;99020.69;;;11.18;77.51
24154;BME280;12312;53.362;-1.518;2023-04-27T12:40:36;99019.38;;;11.13;77.25
24154;BME280;12312;53.362;-1.518;2023-04-27T12:43:20;99027.22;;;11.14;77.29
24154;BME280;12312;53.362;-1.518;2023-04-27T12:46:04;99017.28;;;11.05;78.12
24154;BME280;12312;53.362;-1.518;2023-04-27T12:48:48;99014.25;;;10.99;77.30
24154;BME280;12312;53.362;-1.518;2023-04-27T12:51:33;99012.94;;;11.15;77.84
24154;BME280;12312;53.362;-1.518;2023-04-27T12:54:17;99004.72;;;11.18;76.90
24154;BME280;12312;53.362;-1.518;2023-04-27T12:57:01;99003.03;;;11.17;77.96
24154;BME280;12312;53.362;-1.518;2023-04-27T12:59:48;98996.72;;;11.07;78.03
24154;BME280;12312;53.362;-1.518;2023-04-27T13:02:32;98999.63;;;11.15;77.33
24154;BME280;12312;53.362;-1.518;2023-04-27T13:05:18;98997.69;;;11.17;78.41
24154;BME280;12312;53.362;-1.518;2023-04-27T13:08:01;99004.25;;;11.13;76.77
24154;BME280;12312;53.362;-1.518;2023-04-27T13:10:45;98998.66;;;11.05;76.87
24154;BME280;12312;53.362;-1.518;2023-04-27T13:13:29;99002.97;;;10.84;77.20
24154;BME280;12312;53.362;-1.518;2023-04-27T13:16:14;98998.75;;;10.93;78.39
24154;BME280;12312;53.362;-1.518;2023-04-27T13:18:59;98995.38;;;11.02;78.37
24154;BME280;12312;53.362;-1.518;2023-04-27T13:21:43;99000.34;;;11.17;77.74
24154;BME280;12312;53.362;-1.518;2023-04-27T13:24:27;98992.47;;;10.94;77.24
24154;BME280;12312;53.362;-1.518;2023-04-27T13:27:11;99000.81;;;11.00;76.73
24154;BME280;12312;53.362;-1.518;2023-04-27T13:29:55;98997.94;;;11.25;77.50
24154;BME280;12312;53.362;-1.518;2023-04-27T13:32:39;99000.13;;;11.31;77.38
24154;BME280;12312;53.362;-1.518;2023-04-27T13:35:23;98995.28;;;11.14;78.17
24154;BME280;12312;53.362;-1.518;2023-04-27T13:38:09;98998.44;;;11.52;77.85
24154;BME280;12312;53.362;-1.518;2023-04-27T13:40:53;98990.69;;;11.49;77.78
24154;BME280;12312;53.362;-1.518;2023-04-27T13:43:37;98979.16;;;11.49;78.53
24154;BME280;12312;53.362;-1.518;2023-04-27T13:46:21;98981.09;;;11.80;78.00
24154;BME280;12312;53.362;-1.518;2023-04-27T13:49:05;98977.13;;;11.63;78.05
24154;BME280;12312;53.362;-1.518;2023-04-27T13:51:49;98980.50;;;11.32;78.68
24154;BME280;12312;53.362;-1.518;2023-04-27T13:54:34;98972.03;;;11.49;79.98
24154;BME280;12312;53.362;-1.518;2023-04-27T13:57:18;98974.69;;;11.49;79.70
24154;BME280;12312;53.362;-1.518;2023-04-27T14:00:04;98974.34;;;11.65;79.32
24154;BME280;12312;53.362;-1.518;2023-04-27T14:02:52;98970.81;;;11.75;79.89
24154;BME280;12312;53.362;-1.518;2023-04-27T14:05:37;98959.88;;;11.56;79.87
24154;BME280;12312;53.362;-1.518;2023-04-27T14:08:24;98963.06;;;11.72;80.38
24154;BME280;12312;53.362;-1.518;2023-04-27T14:11:13;98966.56;;;11.73;81.12
24154;BME280;12312;53.362;-1.518;2023-04-27T14:13:57;98957.00;;;11.48;81.82
24154;BME280;12312;53.362;-1.518;2023-04-27T14:16:42;98959.16;;;11.76;83.20
24154;BME280;12312;53.362;-1.518;2023-04-27T14:19:26;98950.94;;;11.57;82.44
24154;BME280;12312;53.362;-1.518;2023-04-27T14:22:10;98956.91;;;11.39;83.30
24154;BME280;12312;53.362;-1.518;2023-04-27T14:24:54;98947.56;;;11.44;84.68
24154;BME280;12312;53.362;-1.518;2023-04-27T14:27:39;98954.09;;;11.40;84.93
24154;BME280;12312;53.362;-1.518;2023-04-27T14:30:23;98942.97;;;11.46;84.70
24154;BME280;12312;53.362;-1.518;2023-04-27T14:33:07;98952.19;;;11.42;83.87